• Join FlightAware (Why Join?)
  • Login
  • US Flag 
06:08PM EDT


 

Airport Tracker/Info


-or-


 

Live Flight TrackerFlight Track Log ✈ TPA705 ✈ 28-Apr-2013 ✈ KMIA - SKRG / MDE

Flight Track Log - Related Links

Times and Time Zones

All times are in EDT time to prevent confusion due to time zone crossing. See the TPA705 flight status page for this flight to view local times or setup timezone preferences in your user account.

Time Position Orientation Groundspeed Altitude Reporting Facility
EDT Latitude Longitude Course Direction KTS MPH feet Rate Location/Type
09:14AM 25.7853 -80.2903 109° East 151 174 1,600  Level Miami Center
09:15AM 25.7639 -80.2206 109° East 266 306 5,500 3,600 Climbing Miami Center
09:15AM 25.7522 -80.1856 110° East 265 305 7,600 5,280 Climbing Miami Center
09:16AM 25.7133 -80.1453 137° Southeast 289 333 11,400 5,100 Climbing Miami Center
09:16AM 25.6864 -80.1400 170° South 312 359 12,700 3,000 Climbing Miami Center
09:17AM 25.6125 -80.1703 200° South 298 343 15,600 2,400 Climbing Miami Center
09:18AM 25.5156 -80.1192 155° Southeast 321 369 17,600 3,000 Climbing Miami Center
09:19AM 25.4206 -80.0636 152° Southeast 352 405 21,600 3,600 Climbing Miami Center
09:20AM 25.3197 -80.0014 151° Southeast 384 442 24,900 3,120 Climbing Miami Center
09:21AM 25.2167 -79.9297 148° Southeast 409 471 27,900 2,700 Climbing Miami Center
09:22AM 25.1075 -79.8514 147° Southeast 446 513 30,300 2,400 Climbing Miami Center
09:23AM 24.9942 -79.7728 148° Southeast 465 535 32,800 2,940 Climbing Miami Center
09:24AM 24.8764 -79.7014 151° Southeast 480 552 36,200 2,880 Climbing Miami Center
09:25AM 24.7519 -79.6575 162° South 480 552 38,600 2,040 Climbing Miami Center
09:26AM 24.6253 -79.6203 165° South 468 539 40,300 1,200 Climbing Miami Center
09:27AM 24.4881 -79.5783 164° South 468 539 41,000 300 Climbing Miami Center
09:28AM 24.3614 -79.5344 162° South 468 539 41,000  Level Miami Center
09:29AM 24.2367 -79.4978 165° South 473 544 41,000  Level Miami Center
09:30AM 24.1119 -79.4586 164° South 473 544 41,000  Level Miami Center
09:31AM 23.9872 -79.4175 163° South 473 544 41,000  Level Miami Center
09:33AM 23.8365 -79.3596 161° South  Level FlightAware Approximate
09:40AM 23.0548 -79.0614 161° South  Level FlightAware Approximate
09:41AM 22.9431 -79.0191 161° South  Level FlightAware Approximate
09:42AM 22.8314 -78.9768 161° South  Level FlightAware Approximate
09:43AM 22.7196 -78.9347 161° South  Level FlightAware Approximate
09:44AM 22.6079 -78.8926 161° South  Level FlightAware Approximate
09:45AM 22.4916 -78.8702 172° South  Level FlightAware Approximate
09:46AM 22.3743 -78.8534 172° South  Level FlightAware Approximate
09:47AM 22.2570 -78.8366 172° South  Level FlightAware Approximate
09:48AM 22.1397 -78.8199 172° South  Level FlightAware Approximate
09:49AM 22.0224 -78.8032 172° South  Level FlightAware Approximate
09:50AM 21.9075 -78.7735 165° South  Level FlightAware Approximate
09:51AM 21.7932 -78.7409 165° South  Level FlightAware Approximate
09:52AM 21.6788 -78.7082 165° South  Level FlightAware Approximate
09:53AM 21.5644 -78.6757 165° South  Level FlightAware Approximate
09:54AM 21.4501 -78.6431 165° South  Level FlightAware Approximate
09:55AM 21.3357 -78.6106 165° South  Level FlightAware Approximate
09:56AM 21.2213 -78.5782 165° South  Level FlightAware Approximate
09:57AM 21.1069 -78.5459 165° South  Level FlightAware Approximate
09:58AM 20.9925 -78.5135 165° South  Level FlightAware Approximate
09:59AM 20.8781 -78.4813 165° South  Level FlightAware Approximate
10:00AM 20.7636 -78.4490 165° South  Level FlightAware Approximate
10:01AM 20.6492 -78.4168 165° South  Level FlightAware Approximate
10:02AM 20.5348 -78.3847 165° South  Level FlightAware Approximate
10:03AM 20.4203 -78.3526 165° South  Level FlightAware Approximate
10:04AM 20.3059 -78.3206 165° South  Level FlightAware Approximate
10:05AM 20.1915 -78.2886 165° South  Level FlightAware Approximate
10:06AM 20.0770 -78.2567 165° South  Level FlightAware Approximate
10:07AM 19.9625 -78.2248 165° South  Level FlightAware Approximate
10:08AM 19.8481 -78.1927 165° South  Level FlightAware Approximate
10:09AM 19.7338 -78.1605 165° South  Level FlightAware Approximate
10:10AM 19.6194 -78.1284 165° South  Level FlightAware Approximate
10:11AM 19.5050 -78.0963 165° South  Level FlightAware Approximate
10:12AM 19.3906 -78.0643 165° South  Level FlightAware Approximate
10:13AM 19.2762 -78.0323 165° South  Level FlightAware Approximate
10:14AM 19.1618 -78.0003 165° South  Level FlightAware Approximate
10:15AM 19.0474 -77.9684 165° South  Level FlightAware Approximate
10:16AM 18.9329 -77.9366 165° South  Level FlightAware Approximate
10:17AM 18.8185 -77.9048 165° South  Level FlightAware Approximate
10:18AM 18.7041 -77.8730 165° South  Level FlightAware Approximate
10:19AM 18.5897 -77.8413 165° South  Level FlightAware Approximate
10:20AM 18.4752 -77.8096 165° South  Level FlightAware Approximate
10:21AM 18.3608 -77.7779 165° South  Level FlightAware Approximate
10:22AM 18.2463 -77.7464 165° South  Level FlightAware Approximate
10:23AM 18.1319 -77.7148 165° South  Level FlightAware Approximate
10:24AM 18.0174 -77.6833 165° South  Level FlightAware Approximate
10:25AM 17.9030 -77.6518 165° South  Level FlightAware Approximate
10:26AM 17.7885 -77.6204 165° South  Level FlightAware Approximate
10:27AM 17.6740 -77.5890 165° South  Level FlightAware Approximate
10:28AM 17.5595 -77.5576 165° South  Level FlightAware Approximate
10:29AM 17.4450 -77.5263 165° South  Level FlightAware Approximate
10:30AM 17.3305 -77.4950 165° South  Level FlightAware Approximate
10:31AM 17.2161 -77.4638 165° South  Level FlightAware Approximate
10:32AM 17.1016 -77.4326 165° South  Level FlightAware Approximate
10:33AM 16.9871 -77.4014 165° South  Level FlightAware Approximate
10:34AM 16.8725 -77.3703 165° South  Level FlightAware Approximate
10:35AM 16.7580 -77.3392 165° South  Level FlightAware Approximate
10:36AM 16.6435 -77.3082 165° South  Level FlightAware Approximate
10:37AM 16.5290 -77.2772 165° South  Level FlightAware Approximate
10:38AM 16.4145 -77.2462 165° South  Level FlightAware Approximate
10:39AM 16.2999 -77.2152 165° South  Level FlightAware Approximate
10:40AM 16.1854 -77.1843 165° South  Level FlightAware Approximate
10:41AM 16.0709 -77.1535 165° South  Level FlightAware Approximate
10:42AM 15.9563 -77.1227 165° South  Level FlightAware Approximate
10:43AM 15.8418 -77.0919 166° South  Level FlightAware Approximate
10:44AM 15.7272 -77.0611 166° South  Level FlightAware Approximate
10:45AM 15.6126 -77.0304 166° South  Level FlightAware Approximate
10:46AM 15.4981 -76.9997 166° South  Level FlightAware Approximate
10:47AM 15.3835 -76.9690 166° South  Level FlightAware Approximate
10:48AM 15.2690 -76.9384 166° South  Level FlightAware Approximate
10:49AM 15.1544 -76.9078 166° South  Level FlightAware Approximate
10:50AM 15.0398 -76.8773 166° South  Level FlightAware Approximate
10:51AM 14.9242 -76.8512 169° South  Level FlightAware Approximate
10:52AM 14.8081 -76.8277 169° South  Level FlightAware Approximate
10:53AM 14.6920 -76.8041 169° South  Level FlightAware Approximate
10:54AM 14.5759 -76.7805 169° South  Level FlightAware Approximate
10:55AM 14.4598 -76.7570 169° South  Level FlightAware Approximate
10:56AM 14.3437 -76.7335 169° South  Level FlightAware Approximate
10:57AM 14.2276 -76.7100 169° South  Level FlightAware Approximate
10:58AM 14.1115 -76.6866 169° South  Level FlightAware Approximate
10:59AM 13.9954 -76.6632 169° South  Level FlightAware Approximate
11:00AM 13.8793 -76.6398 169° South  Level FlightAware Approximate
11:01AM 13.7631 -76.6164 169° South  Level FlightAware Approximate
11:02AM 13.6470 -76.5930 169° South  Level FlightAware Approximate
11:03AM 13.5309 -76.5697 169° South  Level FlightAware Approximate
11:04AM 13.4148 -76.5464 169° South  Level FlightAware Approximate
11:05AM 13.2986 -76.5231 169° South  Level FlightAware Approximate
11:06AM 13.1825 -76.4998 169° South  Level FlightAware Approximate
11:07AM 13.0664 -76.4766 169° South  Level FlightAware Approximate
11:08AM 12.9503 -76.4534 169° South  Level FlightAware Approximate
11:09AM 12.8341 -76.4301 169° South  Level FlightAware Approximate
11:10AM 12.7180 -76.4068 169° South  Level FlightAware Approximate
11:11AM 12.6019 -76.3835 169° South  Level FlightAware Approximate
11:12AM 12.4858 -76.3602 169° South  Level FlightAware Approximate
11:13AM 12.3697 -76.3370 169° South  Level FlightAware Approximate
11:14AM 12.2535 -76.3137 169° South  Level FlightAware Approximate
11:15AM 12.1374 -76.2905 169° South  Level FlightAware Approximate
11:16AM 12.0213 -76.2673 169° South  Level FlightAware Approximate
11:17AM 11.9052 -76.2442 169° South  Level FlightAware Approximate
11:18AM 11.7891 -76.2210 169° South  Level FlightAware Approximate
11:19AM 11.6729 -76.1979 169° South  Level FlightAware Approximate
11:20AM 11.5568 -76.1748 169° South  Level FlightAware Approximate
11:21AM 11.4407 -76.1516 169° South  Level FlightAware Approximate
11:22AM 11.3245 -76.1286 169° South  Level FlightAware Approximate
11:23AM 11.2084 -76.1055 169° South  Level FlightAware Approximate
11:24AM 11.0923 -76.0825 169° South  Level FlightAware Approximate
11:25AM 10.9761 -76.0594 169° South  Level FlightAware Approximate
11:26AM 10.8600 -76.0365 169° South  Level FlightAware Approximate
11:27AM 10.7438 -76.0135 169° South  Level FlightAware Approximate
11:28AM 10.6277 -75.9905 169° South  Level FlightAware Approximate
11:29AM 10.5115 -75.9675 169° South  Level FlightAware Approximate
11:30AM 10.3954 -75.9446 169° South  Level FlightAware Approximate
11:31AM 10.2793 -75.9217 169° South  Level FlightAware Approximate
11:32AM 10.1631 -75.8988 169° South  Level FlightAware Approximate
11:33AM 10.0470 -75.8759 169° South  Level FlightAware Approximate
11:34AM 9.9307 -75.8534 169° South  Level FlightAware Approximate
11:35AM 9.8145 -75.8312 169° South  Level FlightAware Approximate
11:36AM 9.6982 -75.8090 169° South  Level FlightAware Approximate
11:37AM 9.5819 -75.7868 169° South  Level FlightAware Approximate
11:38AM 9.4656 -75.7646 169° South  Level FlightAware Approximate
11:39AM 9.3494 -75.7425 169° South  Level FlightAware Approximate
11:40AM 9.2331 -75.7203 169° South  Level FlightAware Approximate
11:41AM 9.1168 -75.6982 169° South  Level FlightAware Approximate
11:42AM 9.0005 -75.6761 169° South  Level FlightAware Approximate
11:43AM 8.8842 -75.6540 169° South  Level FlightAware Approximate
11:44AM 8.7680 -75.6319 169° South  Level FlightAware Approximate
11:45AM 8.6517 -75.6098 169° South  Level FlightAware Approximate
11:46AM 8.5356 -75.5867 168° South  Level FlightAware Approximate
11:47AM 8.4197 -75.5627 168° South  Level FlightAware Approximate
11:48AM 8.3038 -75.5387 168° South  Level FlightAware Approximate
11:49AM 8.1878 -75.5147 168° South  Level FlightAware Approximate
11:50AM 8.0718 -75.4916 169° South  Level FlightAware Approximate
11:51AM 7.9554 -75.4698 169° South  Level FlightAware Approximate
11:52AM 7.8389 -75.4500 180° South  Level FlightAware Approximate
11:53AM 7.7206 -75.4500 180° South  Level FlightAware Approximate
11:54AM 7.6025 -75.4439 176° South  Level FlightAware Approximate
11:55AM 7.4844 -75.4365 176° South  Level FlightAware Approximate
11:56AM 7.3662 -75.4333 180° South  Level FlightAware Approximate
11:57AM 7.2478 -75.4333 180° South  Level FlightAware Approximate
11:58AM 7.1295 -75.4333 180° South  Level FlightAware Approximate
11:59AM 7.0112 -75.4331 178° South  Level FlightAware Approximate
12:00PM 6.8930 -75.4286 178° South  Level FlightAware Approximate
12:01PM 6.7748 -75.4240 178° South  Level FlightAware Approximate
12:02PM 6.6565 -75.4195 178° South  Level FlightAware Approximate
12:03PM 6.5383 -75.4167 180° South  Level FlightAware Approximate
12:04PM 6.4200 -75.4167 180° South  Level FlightAware Approximate
12:05PM 6.3016 -75.4167 180° South  Level FlightAware Approximate
12:06PM 6.1833 -75.4167 180° South  Level FlightAware Approximate
12:07PM 6.1645 -75.4231 180° South  Level Estimated
12:08PM 6.1645 -75.4231 North  Level Estimated
12:09PM 6.1645 -75.4231 North  Level Estimated
12:10PM 6.1645 -75.4231 North  Level Estimated
12:11PM 6.1645 -75.4231 North  Level Estimated
12:12PM 6.1645 -75.4231 North  Level Estimated
12:13PM 6.1645 -75.4231 North  Level Estimated
12:14PM 6.1645 -75.4231 North  Level Estimated
12:15PM 6.1645 -75.4231 North  Level Estimated
12:16PM 6.1645 -75.4231 North  Level Estimated
12:17PM 6.1645 -75.4231 North  Level Estimated
12:18PM 6.1645 -75.4231 North  Level Estimated
12:19PM 6.1645 -75.4231 North  Level Estimated
12:20PM 6.1645 -75.4231 North  Level Estimated
12:21PM 6.1645 -75.4231 North  Level Estimated
12:22PM 6.1645 -75.4231 North  Level Estimated
12:23PM 6.1645 -75.4231 North  Level Estimated